Xenia, Illinois
Current Conditions -  °F | °C
As of 2:55 AM on Saturday 22 Nov 2014 (Local Time) from KFOA Reporting Station
Clear Clear  
Wind Chill:   Ceiling: Unl
Heat Index:   Visibility: 10mi
Dew Point: -1°   Wind: 7mph
Humidity: 70%   Direction: 180°S
Pressure: 30.22"   Gusts: NA
Location:  38.64°N, 88.63°W
Report Text: KFOA 220855Z AUTO 18006KT 10SM CLR 04/M01 A3022 RMK AO2 60001 T00411010
Loading
Personal Weather Stations






























Interactive Weather Map New forecast layout! Learn more

10-Day Weather Forecast

Advertisements
Track Severe Weather on mobile